createdAt,value
2018-12-21T00:01:36.527Z,1.00
2018-12-21T00:04:34.851Z,0.93
2018-12-21T00:07:33.618Z,1.00
2018-12-21T00:10:31.488Z,0.87
2018-12-21T00:13:29.977Z,1.00
2018-12-21T00:16:27.623Z,0.90
2018-12-21T00:19:26.686Z,0.80
2018-12-21T00:22:33.454Z,0.70
2018-12-21T00:25:31.150Z,1.27
2018-12-21T00:28:29.285Z,0.90
2018-12-21T00:31:33.115Z,1.23
2018-12-21T00:34:36.830Z,1.03
2018-12-21T00:37:40.352Z,1.00
2018-12-21T00:40:44.198Z,0.87
2018-12-21T00:43:43.135Z,1.00
2018-12-21T00:46:40.197Z,0.93
2018-12-21T00:49:38.457Z,1.10
2018-12-21T00:52:36.024Z,1.10
2018-12-21T00:55:34.712Z,1.10
2018-12-21T00:58:33.531Z,0.80
2018-12-21T01:01:31.721Z,0.87
2018-12-21T01:04:29.492Z,1.17
2018-12-21T01:07:28.640Z,1.20
2018-12-21T01:10:25.662Z,0.97
2018-12-21T01:13:23.839Z,0.77
2018-12-21T01:16:22.335Z,1.00
2018-12-21T01:19:20.552Z,1.07
2018-12-21T01:22:18.837Z,1.07
2018-12-21T01:25:17.126Z,0.77
2018-12-21T01:28:15.575Z,0.83
2018-12-21T01:31:15.401Z,1.30
2018-12-21T01:34:12.360Z,1.00
2018-12-21T01:37:10.531Z,1.17
2018-12-21T01:40:09.245Z,0.93
2018-12-21T01:43:08.268Z,0.83
2018-12-21T01:46:07.395Z,1.10
2018-12-21T01:49:06.541Z,1.00
2018-12-21T01:52:04.290Z,0.87
2018-12-21T01:55:02.178Z,1.00
2018-12-21T01:58:01.412Z,0.83
2018-12-21T02:00:59.066Z,0.93
2018-12-21T02:03:56.345Z,1.00
2018-12-21T02:06:54.721Z,0.80
2018-12-21T02:09:51.960Z,0.87
2018-12-21T02:12:49.311Z,1.00
2018-12-21T02:15:47.203Z,0.80
2018-12-21T02:18:44.446Z,1.00
2018-12-21T02:21:41.166Z,1.10
2018-12-21T02:24:39.686Z,0.90
2018-12-21T02:27:38.091Z,0.70
2018-12-21T02:30:36.703Z,1.00
2018-12-21T02:33:34.765Z,0.90
2018-12-21T02:36:33.979Z,0.83
2018-12-21T02:39:32.180Z,0.80
2018-12-21T02:42:29.860Z,1.07
2018-12-21T02:45:27.293Z,1.23
2018-12-21T02:48:25.289Z,1.00
2018-12-21T02:51:24.419Z,0.80
2018-12-21T02:54:23.458Z,0.90
2018-12-21T02:57:22.178Z,0.90
2018-12-21T03:00:22.236Z,0.90
2018-12-21T03:03:20.702Z,0.70
2018-12-21T03:06:17.769Z,0.90
2018-12-21T03:09:16.168Z,1.13
2018-12-21T03:12:13.979Z,1.03
2018-12-21T03:15:13.376Z,0.93
2018-12-21T03:18:10.114Z,0.77
2018-12-21T03:21:07.669Z,1.13
2018-12-21T03:24:06.192Z,0.90
2018-12-21T03:27:04.584Z,0.87
2018-12-21T03:30:02.584Z,1.00
2018-12-21T03:33:01.301Z,1.10
2018-12-21T03:35:59.752Z,1.00
2018-12-21T03:38:58.269Z,1.13
2018-12-21T03:41:55.832Z,1.27
2018-12-21T03:44:53.309Z,0.97
2018-12-21T03:47:51.262Z,1.00
2018-12-21T03:50:49.805Z,1.20
2018-12-21T03:53:48.920Z,1.07
2018-12-21T03:56:46.483Z,0.90
2018-12-21T03:59:43.744Z,0.83
2018-12-21T04:02:41.697Z,1.00
2018-12-21T04:05:40.007Z,0.80
2018-12-21T04:08:38.615Z,0.77
2018-12-21T04:11:35.677Z,0.87
2018-12-21T04:14:34.681Z,0.83
2018-12-21T04:17:33.276Z,1.00
2018-12-21T04:20:31.369Z,1.20
2018-12-21T04:23:30.601Z,0.90
2018-12-21T04:26:28.716Z,1.00
2018-12-21T04:29:27.587Z,0.70
2018-12-21T04:32:26.012Z,0.90
2018-12-21T04:35:25.449Z,0.80
2018-12-21T04:38:22.883Z,0.80
2018-12-21T04:41:21.621Z,0.70
2018-12-21T04:44:20.539Z,0.90
2018-12-21T04:47:18.224Z,0.70
2018-12-21T04:50:16.715Z,0.57
2018-12-21T04:53:13.844Z,0.83
2018-12-21T04:56:12.125Z,0.70
2018-12-21T04:59:10.134Z,1.10
2018-12-21T05:02:07.919Z,0.97
2018-12-21T05:05:06.184Z,0.90
2018-12-21T05:08:03.657Z,0.67
2018-12-21T05:11:01.935Z,0.60
2018-12-21T05:14:00.875Z,0.73
2018-12-21T05:16:58.587Z,0.80
2018-12-21T05:19:56.920Z,0.67
2018-12-21T05:22:55.737Z,0.80
2018-12-21T05:25:54.761Z,0.67
2018-12-21T05:28:53.505Z,0.90
2018-12-21T05:31:51.691Z,0.73
2018-12-21T05:34:50.057Z,1.10
2018-12-21T05:37:46.918Z,0.90
2018-12-21T05:40:44.871Z,0.97
2018-12-21T05:43:43.696Z,0.60
2018-12-21T05:46:43.339Z,0.93
2018-12-21T05:49:40.811Z,0.77
2018-12-21T05:52:39.929Z,0.70
2018-12-21T05:55:37.598Z,0.90
2018-12-21T05:58:35.475Z,0.70
2018-12-21T06:01:33.821Z,0.70
2018-12-21T06:04:32.694Z,0.90
2018-12-21T06:07:30.915Z,0.60
2018-12-21T06:10:29.484Z,0.50
2018-12-21T06:13:27.759Z,0.60
2018-12-21T06:16:24.749Z,0.50
2018-12-21T06:19:23.637Z,0.60
2018-12-21T06:22:22.447Z,0.73
2018-12-21T06:25:20.645Z,0.50
2018-12-21T06:28:19.665Z,0.53
2018-12-21T06:31:18.295Z,0.40
2018-12-21T06:34:16.793Z,0.50
2018-12-21T06:37:15.068Z,0.50
2018-12-21T06:40:12.423Z,0.60
2018-12-21T06:43:11.239Z,0.53
2018-12-21T06:46:14.152Z,0.50
2018-12-21T06:49:09.916Z,0.60
2018-12-21T06:52:08.311Z,0.37
2018-12-21T06:55:05.887Z,0.30
2018-12-21T06:58:03.645Z,0.50
2018-12-21T07:01:01.000Z,0.50
2018-12-21T07:03:59.703Z,0.40
2018-12-21T07:06:58.751Z,0.30
2018-12-21T07:09:56.092Z,0.30
2018-12-21T07:12:54.256Z,0.33
2018-12-21T07:15:53.540Z,0.40
2018-12-21T07:18:52.340Z,0.20
2018-12-21T07:21:50.624Z,0.30
2018-12-21T07:24:48.433Z,0.23
2018-12-21T07:27:46.270Z,0.20
2018-12-21T07:30:44.570Z,0.40
2018-12-21T07:33:41.790Z,0.40
2018-12-21T07:36:40.438Z,0.30
2018-12-21T07:39:38.548Z,0.33
2018-12-21T07:42:37.118Z,0.30
2018-12-21T07:45:34.260Z,0.20
2018-12-21T07:48:32.870Z,0.57
2018-12-21T07:51:30.246Z,0.50
2018-12-21T07:54:28.447Z,0.30
2018-12-21T07:57:27.744Z,0.30
2018-12-21T08:00:27.008Z,0.40
2018-12-21T08:03:25.097Z,0.10
2018-12-21T08:06:24.210Z,0.17
2018-12-21T08:09:22.143Z,0.20
2018-12-21T08:12:19.751Z,0.40
2018-12-21T08:15:18.044Z,0.10
2018-12-21T08:18:16.319Z,0.20
2018-12-21T08:21:14.115Z,0.20
2018-12-21T08:24:11.890Z,0.20
2018-12-21T08:27:10.793Z,0.30
2018-12-21T08:30:08.790Z,0.27
2018-12-21T08:33:06.341Z,0.30
2018-12-21T08:36:05.148Z,0.23
2018-12-21T08:39:04.033Z,0.10
2018-12-21T08:42:01.658Z,0.27
2018-12-21T08:44:59.715Z,0.10
2018-12-21T08:47:56.685Z,0.20
2018-12-21T08:50:53.799Z,0.10
2018-12-21T08:53:52.593Z,0.10
2018-12-21T08:56:51.012Z,0.13
2018-12-21T08:59:48.224Z,0.20
2018-12-21T09:02:46.785Z,0.17
2018-12-21T09:05:44.885Z,0.10
2018-12-21T09:08:44.733Z,0.30
2018-12-21T09:11:43.629Z,0.17
2018-12-21T09:14:41.822Z,0.10
2018-12-21T09:17:39.319Z,0.30
2018-12-21T09:20:37.893Z,0.10
2018-12-21T09:23:37.767Z,0.20
2018-12-21T09:26:37.007Z,0.20
2018-12-21T09:29:34.557Z,0.10
2018-12-21T09:32:32.538Z,0.20
2018-12-21T09:35:31.336Z,0.17
2018-12-21T09:38:30.679Z,0.10
2018-12-21T09:41:27.479Z,0.30
2018-12-21T09:44:25.593Z,0.20
2018-12-21T09:47:24.951Z,0.10
2018-12-21T09:50:23.433Z,0.00
2018-12-21T09:53:22.109Z,0.10
2018-12-21T09:56:21.570Z,0.17
2018-12-21T09:59:20.095Z,0.20
2018-12-21T10:02:18.158Z,0.10
2018-12-21T10:05:16.936Z,0.17
2018-12-21T10:08:14.472Z,0.10
2018-12-21T10:11:13.078Z,0.00
2018-12-21T10:14:10.737Z,0.10
2018-12-21T10:17:09.019Z,0.20
2018-12-21T10:20:06.167Z,0.23
2018-12-21T10:23:04.259Z,0.10
2018-12-21T10:26:03.706Z,0.20
2018-12-21T10:29:02.741Z,0.20
2018-12-21T10:32:01.502Z,0.10
2018-12-21T10:35:00.782Z,0.10
2018-12-21T10:37:58.911Z,0.10
2018-12-21T10:40:57.496Z,0.00
2018-12-21T10:43:55.138Z,0.10
2018-12-21T10:46:54.463Z,0.20
2018-12-21T10:49:52.401Z,0.30
2018-12-21T10:52:50.126Z,0.10
2018-12-21T10:55:49.122Z,0.13
2018-12-21T10:58:46.713Z,0.20
2018-12-21T11:01:45.113Z,0.10
2018-12-21T11:04:42.884Z,0.20
2018-12-21T11:07:40.960Z,0.10
2018-12-21T11:10:40.103Z,0.10
2018-12-21T11:13:39.122Z,0.20
2018-12-21T11:16:36.895Z,0.27
2018-12-21T11:19:33.923Z,0.20
2018-12-21T11:22:31.679Z,0.20
2018-12-21T11:25:28.705Z,0.20
2018-12-21T11:28:26.529Z,0.10
2018-12-21T11:31:25.032Z,0.30
2018-12-21T11:34:24.147Z,0.20
2018-12-21T11:37:22.269Z,0.20
2018-12-21T11:40:20.648Z,0.30
2018-12-21T11:43:19.405Z,0.20
2018-12-21T11:46:17.504Z,0.30
2018-12-21T11:49:16.442Z,0.20
2018-12-21T11:52:15.377Z,0.20
2018-12-21T11:55:14.202Z,0.20
2018-12-21T11:58:11.766Z,0.20
2018-12-21T12:01:10.244Z,0.20
2018-12-21T12:04:07.753Z,0.20
2018-12-21T12:07:06.108Z,0.30
2018-12-21T12:10:06.063Z,0.10
2018-12-21T12:13:03.746Z,0.17
2018-12-21T12:16:02.357Z,0.20
2018-12-21T12:19:01.177Z,0.30
2018-12-21T12:21:58.431Z,0.20
2018-12-21T12:24:57.465Z,0.20
2018-12-21T12:27:56.249Z,0.13
2018-12-21T12:30:53.717Z,0.40
2018-12-21T12:33:51.787Z,0.23
2018-12-21T12:36:50.393Z,0.30
2018-12-21T12:39:47.778Z,0.30
2018-12-21T12:42:46.144Z,0.30
2018-12-21T12:45:44.009Z,0.30
2018-12-21T12:48:42.304Z,0.10
2018-12-21T12:51:41.248Z,0.40
2018-12-21T12:54:39.566Z,0.10
2018-12-21T12:57:38.347Z,0.07
2018-12-21T13:00:36.423Z,0.50
2018-12-21T13:03:34.957Z,0.23
2018-12-21T13:06:35.006Z,0.30
2018-12-21T13:09:32.774Z,0.20
2018-12-21T13:12:31.100Z,0.30
2018-12-21T13:15:29.041Z,0.20
2018-12-21T13:18:28.448Z,0.20
2018-12-21T13:21:27.138Z,0.10
2018-12-21T13:24:26.561Z,0.20
2018-12-21T13:27:25.270Z,0.30
2018-12-21T13:30:25.130Z,0.33
2018-12-21T13:33:24.401Z,0.30
2018-12-21T13:36:23.497Z,0.10
2018-12-21T13:39:21.994Z,0.23
2018-12-21T13:42:19.970Z,0.30
2018-12-21T13:45:17.958Z,0.37
2018-12-21T13:48:17.088Z,0.40
2018-12-21T13:51:14.322Z,0.30
2018-12-21T13:54:11.898Z,0.23
2018-12-21T13:57:09.690Z,0.47
2018-12-21T14:00:07.636Z,0.23
2018-12-21T14:03:05.946Z,0.20
2018-12-21T14:06:03.826Z,0.23
2018-12-21T14:09:02.690Z,0.40
2018-12-21T14:12:00.604Z,0.20
2018-12-21T14:14:59.418Z,0.23
2018-12-21T14:17:57.412Z,0.30
2018-12-21T14:20:56.958Z,0.30
2018-12-21T14:23:54.823Z,0.40
2018-12-21T14:26:52.385Z,0.40
2018-12-21T14:29:50.491Z,0.40
2018-12-21T14:32:47.764Z,0.40
2018-12-21T14:35:46.776Z,0.30
2018-12-21T14:38:43.785Z,0.30
2018-12-21T14:41:42.289Z,0.30
2018-12-21T14:44:40.270Z,0.30
2018-12-21T14:47:38.260Z,0.37
2018-12-21T14:50:36.770Z,0.20
2018-12-21T14:53:35.044Z,0.30
2018-12-21T14:56:31.849Z,0.20
2018-12-21T14:59:29.333Z,0.53
2018-12-21T15:02:28.446Z,0.27
2018-12-21T15:05:27.068Z,0.20
2018-12-21T15:08:25.804Z,0.70
2018-12-21T15:11:22.766Z,0.50
2018-12-21T15:14:21.861Z,0.40
2018-12-21T15:17:19.824Z,0.50
2018-12-21T15:20:18.125Z,0.47
2018-12-21T15:23:15.829Z,0.43
2018-12-21T15:26:14.201Z,0.80
2018-12-21T15:29:12.273Z,0.53
2018-12-21T15:32:09.252Z,0.60
2018-12-21T15:35:06.691Z,0.57
2018-12-21T15:38:05.887Z,0.40
2018-12-21T15:41:04.195Z,0.50
2018-12-21T15:44:01.341Z,0.67
2018-12-21T15:47:08.804Z,0.30
2018-12-21T15:50:00.342Z,0.40
2018-12-21T15:52:59.480Z,0.30
2018-12-21T15:55:57.647Z,0.43
2018-12-21T15:58:56.396Z,0.30
2018-12-21T16:01:54.156Z,0.50
2018-12-21T16:04:51.919Z,0.50
2018-12-21T16:07:49.247Z,0.30
2018-12-21T16:10:47.759Z,0.60
2018-12-21T16:13:44.912Z,0.60
2018-12-21T16:16:43.512Z,0.70
2018-12-21T16:19:41.286Z,0.53
2018-12-21T16:22:42.571Z,0.67
2018-12-21T16:25:39.886Z,0.50
2018-12-21T16:28:38.589Z,0.67
2018-12-21T16:31:36.339Z,0.50
2018-12-21T16:34:35.588Z,0.50
2018-12-21T16:37:34.119Z,0.60
2018-12-21T16:40:32.070Z,0.77
2018-12-21T16:43:28.960Z,0.53
2018-12-21T16:46:28.239Z,0.50
2018-12-21T16:49:26.323Z,0.40
2018-12-21T16:52:23.873Z,0.50
2018-12-21T16:55:22.478Z,0.60
2018-12-21T16:58:19.416Z,0.60
2018-12-21T17:01:17.396Z,0.60
2018-12-21T17:04:16.233Z,0.63
2018-12-21T17:07:14.945Z,0.53
2018-12-21T17:10:13.636Z,0.40
2018-12-21T17:13:10.782Z,0.57
2018-12-21T17:16:08.556Z,0.50
2018-12-21T17:19:06.117Z,0.70
2018-12-21T17:22:05.479Z,0.53
2018-12-21T17:25:02.365Z,0.50
2018-12-21T17:28:00.316Z,0.50
2018-12-21T17:30:59.294Z,0.33
2018-12-21T17:33:58.170Z,0.60
2018-12-21T17:36:55.460Z,0.30
2018-12-21T17:39:53.368Z,0.57
2018-12-21T17:42:51.838Z,0.30
2018-12-21T17:45:48.848Z,0.50
2018-12-21T17:48:47.682Z,0.60
2018-12-21T17:51:45.982Z,0.40
2018-12-21T17:54:44.095Z,0.30
2018-12-21T17:57:41.950Z,0.47
2018-12-21T18:00:40.050Z,0.27
2018-12-21T18:03:39.793Z,0.70
2018-12-21T18:06:37.092Z,0.40
2018-12-21T18:09:35.960Z,0.63
2018-12-21T18:12:34.986Z,0.57
2018-12-21T18:15:32.550Z,0.43
2018-12-21T18:18:33.572Z,0.57
2018-12-21T18:21:32.687Z,0.33
2018-12-21T18:24:31.215Z,0.27
2018-12-21T18:27:29.761Z,0.50
2018-12-21T18:30:29.555Z,0.57
2018-12-21T18:33:27.368Z,0.50
2018-12-21T18:36:25.634Z,0.50
2018-12-21T18:39:23.615Z,0.40
2018-12-21T18:42:22.220Z,0.50
2018-12-21T18:45:21.874Z,0.27
2018-12-21T18:48:20.988Z,0.50
2018-12-21T18:51:20.224Z,0.53
2018-12-21T18:54:18.528Z,0.60
2018-12-21T18:57:16.480Z,0.50
2018-12-21T19:00:16.054Z,0.50
2018-12-21T19:03:14.111Z,0.57
2018-12-21T19:06:13.681Z,0.40
2018-12-21T19:09:13.224Z,0.87
2018-12-21T19:12:11.934Z,0.60
2018-12-21T19:15:11.238Z,0.80
2018-12-21T19:18:09.588Z,0.63
2018-12-21T19:21:07.792Z,0.73
2018-12-21T19:24:05.738Z,0.57
2018-12-21T19:27:04.555Z,0.50
2018-12-21T19:30:03.579Z,0.60
2018-12-21T19:33:01.978Z,0.60
2018-12-21T19:36:00.861Z,0.50
2018-12-21T19:38:58.567Z,0.67
2018-12-21T19:41:57.664Z,0.50
2018-12-21T19:44:55.358Z,0.70
2018-12-21T19:47:52.715Z,0.40
2018-12-21T19:50:50.067Z,0.60
2018-12-21T19:53:48.450Z,0.50
2018-12-21T19:56:48.237Z,0.50
2018-12-21T19:59:46.934Z,0.60
2018-12-21T20:02:45.143Z,0.60
2018-12-21T20:05:43.748Z,0.60
2018-12-21T20:08:41.295Z,0.80
2018-12-21T20:11:39.698Z,0.50
2018-12-21T20:14:37.372Z,0.73
2018-12-21T20:17:34.401Z,0.40
2018-12-21T20:20:31.753Z,0.47
2018-12-21T20:23:30.480Z,0.50
2018-12-21T20:26:27.140Z,0.70
2018-12-21T20:29:24.568Z,0.50
2018-12-21T20:32:23.086Z,0.40
2018-12-21T20:35:22.492Z,0.37
2018-12-21T20:38:21.798Z,0.60
2018-12-21T20:41:21.496Z,0.60
2018-12-21T20:44:20.610Z,0.70
2018-12-21T20:47:18.197Z,0.43
2018-12-21T20:50:15.860Z,0.37
2018-12-21T20:53:13.132Z,0.53
2018-12-21T20:56:10.058Z,0.63
2018-12-21T20:59:07.229Z,0.30
2018-12-21T21:02:06.320Z,0.60
2018-12-21T21:05:03.220Z,0.50
2018-12-21T21:08:01.359Z,0.57
2018-12-21T21:10:59.093Z,0.50
2018-12-21T21:13:56.989Z,0.70
2018-12-21T21:16:54.221Z,0.40
2018-12-21T21:19:53.800Z,0.60
2018-12-21T21:22:51.473Z,0.30
2018-12-21T21:25:49.442Z,0.80
2018-12-21T21:28:46.794Z,0.57
2018-12-21T21:31:44.655Z,0.47
2018-12-21T21:34:42.523Z,0.40
2018-12-21T21:37:40.499Z,0.40
2018-12-21T21:40:38.066Z,0.57
2018-12-21T21:43:34.818Z,0.53
2018-12-21T21:46:33.275Z,0.60
2018-12-21T21:49:30.541Z,0.40
2018-12-21T21:52:29.285Z,0.47
2018-12-21T21:55:27.250Z,0.47
2018-12-21T21:58:26.296Z,0.60
2018-12-21T22:01:24.970Z,0.50
2018-12-21T22:04:23.787Z,0.40
2018-12-21T22:07:22.093Z,0.70
2018-12-21T22:10:22.277Z,0.60
2018-12-21T22:13:20.242Z,0.67
2018-12-21T22:16:17.591Z,0.80
2018-12-21T22:19:16.109Z,0.53
2018-12-21T22:22:14.837Z,0.80
2018-12-21T22:25:12.624Z,0.60
2018-12-21T22:28:10.380Z,0.40
2018-12-21T22:31:07.752Z,0.63
2018-12-21T22:34:04.454Z,0.50
2018-12-21T22:37:02.647Z,0.57
2018-12-21T22:40:01.448Z,0.57
2018-12-21T22:42:58.824Z,0.50
2018-12-21T22:45:58.249Z,0.60
2018-12-21T22:48:57.150Z,0.70
2018-12-21T22:51:56.187Z,0.57
2018-12-21T22:54:54.592Z,0.63
2018-12-21T22:57:56.433Z,0.60
2018-12-21T23:00:53.143Z,0.30
2018-12-21T23:03:50.916Z,0.53
2018-12-21T23:06:49.106Z,0.73
2018-12-21T23:09:46.253Z,0.40
2018-12-21T23:12:44.023Z,0.50
2018-12-21T23:15:42.752Z,0.90
2018-12-21T23:18:40.401Z,0.67
2018-12-21T23:21:38.503Z,0.63
2018-12-21T23:24:37.823Z,0.87
2018-12-21T23:27:35.400Z,0.73
2018-12-21T23:30:33.074Z,0.77
2018-12-21T23:33:30.305Z,0.50
2018-12-21T23:36:28.294Z,0.50
2018-12-21T23:39:26.475Z,0.47
2018-12-21T23:42:23.827Z,0.70
2018-12-21T23:45:21.419Z,0.80
2018-12-21T23:48:18.328Z,0.70
2018-12-21T23:51:16.424Z,0.80
2018-12-21T23:54:14.635Z,0.60
2018-12-21T23:57:11.432Z,0.50
